createdAt,value
2019-04-30T00:00:38.287Z,11.60
2019-04-30T00:03:19.447Z,11.60
2019-04-30T00:05:49.325Z,11.50
2019-04-30T00:08:19.369Z,11.60
2019-04-30T00:10:49.498Z,11.60
2019-04-30T00:13:21.007Z,11.60
2019-04-30T00:15:52.688Z,11.60
2019-04-30T00:18:25.475Z,11.60
2019-04-30T00:20:56.193Z,11.60
2019-04-30T00:23:30.555Z,11.50
2019-04-30T00:26:05.003Z,11.40
2019-04-30T00:28:30.477Z,11.40
2019-04-30T00:31:00.887Z,11.40
2019-04-30T00:33:31.240Z,11.40
2019-04-30T00:36:01.327Z,11.40
2019-04-30T00:38:34.359Z,11.40
2019-04-30T00:41:06.799Z,11.40
2019-04-30T00:43:37.660Z,11.40
2019-04-30T00:46:07.589Z,11.40
2019-04-30T00:48:37.779Z,11.40
2019-04-30T00:51:14.075Z,11.40
2019-04-30T00:53:43.714Z,11.40
2019-04-30T00:56:11.683Z,11.40
2019-04-30T00:58:41.807Z,11.50
2019-04-30T01:01:48.075Z,11.50
2019-04-30T01:04:34.836Z,11.50
2019-04-30T01:07:08.597Z,11.50
2019-04-30T01:09:39.667Z,11.50
2019-04-30T01:12:10.397Z,11.50
2019-04-30T01:14:40.558Z,11.50
2019-04-30T01:17:12.386Z,11.50
2019-04-30T01:19:45.892Z,11.50
2019-04-30T01:22:21.222Z,11.50
2019-04-30T01:24:49.639Z,11.50
2019-04-30T01:27:20.688Z,11.50
2019-04-30T01:29:51.199Z,11.50
2019-04-30T01:32:21.364Z,11.50
2019-04-30T01:34:53.760Z,11.50
2019-04-30T01:37:28.450Z,11.50
2019-04-30T01:39:58.801Z,11.50
2019-04-30T01:42:28.979Z,11.50
2019-04-30T01:44:59.057Z,11.40
2019-04-30T01:47:31.238Z,11.40
2019-04-30T01:50:04.914Z,11.50
2019-04-30T01:52:53.281Z,11.40
2019-04-30T01:55:39.031Z,11.40
2019-04-30T01:58:30.005Z,11.40
2019-04-30T02:01:02.984Z,11.40
2019-04-30T02:03:33.869Z,11.40
2019-04-30T02:06:04.031Z,11.40
2019-04-30T02:08:34.519Z,11.40
2019-04-30T02:11:04.702Z,11.50
2019-04-30T02:13:35.211Z,11.50
2019-04-30T02:16:05.569Z,11.50
2019-04-30T02:18:35.697Z,11.50
2019-04-30T02:21:05.866Z,11.50
2019-04-30T02:23:36.013Z,11.50
2019-04-30T02:26:08.643Z,11.50
2019-04-30T02:28:39.352Z,11.40
2019-04-30T02:31:09.725Z,11.40
2019-04-30T02:33:41.457Z,11.50
2019-04-30T02:36:19.838Z,11.50
2019-04-30T02:38:52.389Z,11.50
2019-04-30T02:41:24.320Z,11.50
2019-04-30T02:43:56.500Z,11.40
2019-04-30T02:46:31.928Z,11.50
2019-04-30T02:49:01.243Z,11.40
2019-04-30T02:51:32.495Z,11.40
2019-04-30T02:54:22.945Z,11.40
2019-04-30T02:57:12.221Z,11.40
2019-04-30T03:00:01.749Z,11.40
2019-04-30T03:02:33.525Z,11.40
2019-04-30T03:05:04.144Z,11.40
2019-04-30T03:07:34.309Z,11.30
2019-04-30T03:10:05.397Z,11.40
2019-04-30T03:12:35.920Z,11.40
2019-04-30T03:15:09.702Z,11.30
2019-04-30T03:18:06.518Z,11.30
2019-04-30T03:20:50.740Z,11.30
2019-04-30T03:23:20.995Z,11.30
2019-04-30T03:25:51.200Z,11.40
2019-04-30T03:28:21.380Z,11.40
2019-04-30T03:30:57.312Z,11.40
2019-04-30T03:33:23.455Z,11.40
2019-04-30T03:35:54.863Z,11.40
2019-04-30T03:38:25.562Z,11.40
2019-04-30T03:40:55.617Z,11.40
2019-04-30T03:43:25.780Z,11.40
2019-04-30T03:45:55.940Z,11.40
2019-04-30T03:48:26.088Z,11.40
2019-04-30T03:50:57.372Z,11.40
2019-04-30T03:53:29.813Z,11.40
2019-04-30T03:56:01.476Z,11.40
2019-04-30T03:58:32.879Z,11.40
2019-04-30T04:01:14.329Z,11.40
2019-04-30T04:04:22.096Z,11.50
2019-04-30T04:07:00.807Z,11.50
2019-04-30T04:09:39.944Z,11.50
2019-04-30T04:12:24.955Z,11.50
2019-04-30T04:14:55.421Z,11.50
2019-04-30T04:17:25.581Z,11.50
2019-04-30T04:19:55.679Z,11.50
2019-04-30T04:22:26.342Z,11.50
2019-04-30T04:24:56.518Z,11.50
2019-04-30T04:27:29.798Z,11.50
2019-04-30T04:30:01.095Z,11.50
2019-04-30T04:32:31.304Z,11.60
2019-04-30T04:35:01.592Z,11.60
2019-04-30T04:37:31.777Z,11.60
2019-04-30T04:40:02.276Z,11.60
2019-04-30T04:42:33.139Z,11.60
2019-04-30T04:45:03.692Z,11.60
2019-04-30T04:47:33.819Z,11.60
2019-04-30T04:50:04.325Z,11.50
2019-04-30T04:52:34.416Z,11.50
2019-04-30T04:55:05.208Z,11.50
2019-04-30T04:57:35.501Z,11.40
2019-04-30T05:00:07.495Z,11.40
2019-04-30T05:03:04.601Z,11.40
2019-04-30T05:05:34.768Z,11.40
2019-04-30T05:08:04.863Z,11.40
2019-04-30T05:13:35.710Z,11.40
2019-04-30T05:16:06.280Z,11.30
2019-04-30T05:18:36.458Z,11.30
2019-04-30T05:21:06.582Z,11.30
2019-04-30T05:23:36.750Z,11.30
2019-04-30T05:26:08.454Z,11.30
2019-04-30T05:28:39.347Z,11.30
2019-04-30T05:31:10.804Z,11.30
2019-04-30T05:33:40.938Z,11.30
2019-04-30T05:36:12.168Z,11.30
2019-04-30T05:38:42.368Z,11.30
2019-04-30T05:41:12.502Z,11.30
2019-04-30T05:43:43.018Z,11.30
2019-04-30T05:46:14.145Z,11.30
2019-04-30T05:48:44.408Z,11.30
2019-04-30T05:51:14.850Z,11.30
2019-04-30T05:53:45.307Z,11.30
2019-04-30T05:56:15.444Z,11.40
2019-04-30T05:58:45.627Z,11.40
2019-04-30T06:01:16.133Z,11.40
2019-04-30T06:03:46.195Z,11.40
2019-04-30T06:06:16.619Z,11.40
2019-04-30T06:09:06.289Z,11.40
2019-04-30T06:11:50.966Z,11.40
2019-04-30T06:14:48.958Z,11.40
2019-04-30T06:17:19.588Z,11.40
2019-04-30T06:19:51.543Z,11.40
2019-04-30T06:22:22.097Z,11.40
2019-04-30T06:24:52.158Z,11.40
2019-04-30T06:27:23.062Z,11.40
2019-04-30T06:29:53.298Z,11.40
2019-04-30T06:32:23.753Z,11.40
2019-04-30T06:34:54.504Z,11.40
2019-04-30T06:37:25.378Z,11.40
2019-04-30T06:39:55.709Z,11.40
2019-04-30T06:42:26.154Z,11.40
2019-04-30T06:44:56.291Z,11.40
2019-04-30T06:47:33.033Z,11.40
2019-04-30T06:50:01.289Z,11.40
2019-04-30T06:52:30.920Z,11.40
2019-04-30T06:55:01.069Z,11.40
2019-04-30T06:57:31.475Z,11.40
2019-04-30T07:00:01.578Z,11.40
2019-04-30T07:02:31.739Z,11.40
2019-04-30T07:05:02.213Z,11.40
2019-04-30T07:07:39.078Z,11.50
2019-04-30T07:10:21.107Z,11.50
2019-04-30T07:12:59.554Z,11.50
2019-04-30T07:15:30.109Z,11.50
2019-04-30T07:18:00.650Z,11.40
2019-04-30T07:20:33.992Z,11.40
2019-04-30T07:23:03.386Z,11.40
2019-04-30T07:25:33.907Z,11.40
2019-04-30T07:28:04.076Z,11.40
2019-04-30T07:30:34.675Z,11.40
2019-04-30T07:33:04.921Z,11.40
2019-04-30T07:35:35.068Z,11.40
2019-04-30T07:38:05.239Z,11.40
2019-04-30T07:40:35.296Z,11.40
2019-04-30T07:43:05.789Z,11.40
2019-04-30T07:45:36.071Z,11.50
2019-04-30T07:48:09.332Z,11.40
2019-04-30T07:50:41.113Z,11.40
2019-04-30T07:55:42.712Z,11.40
2019-04-30T07:58:12.856Z,11.40
2019-04-30T08:00:42.951Z,11.40
2019-04-30T08:03:33.825Z,11.40
2019-04-30T08:06:04.955Z,11.40
2019-04-30T08:08:35.329Z,11.50
2019-04-30T08:09:36.743Z,11.40
2019-04-30T08:11:06.139Z,11.50
2019-04-30T08:13:36.574Z,11.50
2019-04-30T08:16:09.680Z,11.50
2019-04-30T08:18:39.623Z,11.50
2019-04-30T08:21:09.757Z,11.50
2019-04-30T08:23:39.921Z,11.50
2019-04-30T08:26:10.077Z,11.50
2019-04-30T08:28:40.286Z,11.50
2019-04-30T08:31:10.406Z,11.50
2019-04-30T08:33:40.571Z,11.50
2019-04-30T08:36:10.697Z,11.50
2019-04-30T08:38:40.863Z,11.50
2019-04-30T08:41:10.995Z,11.50
2019-04-30T08:43:41.127Z,11.60
2019-04-30T08:46:12.000Z,11.60
2019-04-30T08:48:50.442Z,11.60
2019-04-30T08:51:14.667Z,11.60
2019-04-30T08:53:45.399Z,11.60
2019-04-30T08:56:15.755Z,11.60
2019-04-30T08:58:45.909Z,11.60
2019-04-30T09:01:19.221Z,11.60
2019-04-30T09:03:51.183Z,11.70
2019-04-30T09:06:24.678Z,11.70
2019-04-30T09:09:13.181Z,11.70
2019-04-30T09:11:52.883Z,11.70
2019-04-30T09:14:15.479Z,11.70
2019-04-30T09:16:45.713Z,11.80
2019-04-30T09:19:21.039Z,11.80
2019-04-30T09:21:50.129Z,11.80
2019-04-30T09:24:20.677Z,11.80
2019-04-30T09:26:50.741Z,11.70
2019-04-30T09:29:21.311Z,11.80
2019-04-30T09:31:51.451Z,11.80
2019-04-30T09:34:21.537Z,11.80
2019-04-30T09:36:51.599Z,11.80
2019-04-30T09:39:23.190Z,11.80
2019-04-30T09:41:53.825Z,11.80
2019-04-30T09:44:24.017Z,11.80
2019-04-30T09:46:54.102Z,11.80
2019-04-30T09:49:24.210Z,11.90
2019-04-30T09:51:55.451Z,11.90
2019-04-30T09:54:25.631Z,11.90
2019-04-30T09:56:56.025Z,11.90
2019-04-30T09:59:29.188Z,11.90
2019-04-30T10:01:59.630Z,11.90
2019-04-30T10:04:30.609Z,12.00
2019-04-30T10:07:01.633Z,12.10
2019-04-30T10:09:31.877Z,12.20
2019-04-30T10:12:10.501Z,12.30
2019-04-30T10:14:41.145Z,12.30
2019-04-30T10:17:30.778Z,12.30
2019-04-30T10:20:00.989Z,12.30
2019-04-30T10:22:31.504Z,12.40
2019-04-30T10:25:01.693Z,12.40
2019-04-30T10:27:31.812Z,12.40
2019-04-30T10:30:02.684Z,12.60
2019-04-30T10:32:32.924Z,12.50
2019-04-30T10:35:03.386Z,12.50
2019-04-30T10:37:33.845Z,12.60
2019-04-30T10:40:05.120Z,12.60
2019-04-30T10:42:35.338Z,12.60
2019-04-30T10:45:09.810Z,12.60
2019-04-30T10:47:41.174Z,12.50
2019-04-30T10:50:12.966Z,12.50
2019-04-30T10:52:43.225Z,12.50
2019-04-30T10:55:13.990Z,12.50
2019-04-30T10:57:44.110Z,12.50
2019-04-30T11:00:15.993Z,12.50
2019-04-30T11:02:46.126Z,12.60
2019-04-30T11:05:18.787Z,12.60
2019-04-30T11:07:49.687Z,12.60
2019-04-30T11:10:20.213Z,12.70
2019-04-30T11:12:50.286Z,12.80
2019-04-30T11:15:20.834Z,12.80
2019-04-30T11:17:51.311Z,12.90
2019-04-30T11:20:22.389Z,12.80
2019-04-30T11:22:54.874Z,12.80
2019-04-30T11:25:27.021Z,12.80
2019-04-30T11:27:58.358Z,12.90
2019-04-30T11:30:29.743Z,12.90
2019-04-30T11:33:00.432Z,13.00
2019-04-30T11:35:31.142Z,13.00
2019-04-30T11:38:01.320Z,13.00
2019-04-30T11:40:37.093Z,13.00
2019-04-30T11:43:04.792Z,13.10
2019-04-30T11:46:08.648Z,13.10
2019-04-30T11:48:39.424Z,13.10
2019-04-30T11:51:09.647Z,13.10
2019-04-30T11:53:40.152Z,13.20
2019-04-30T11:56:10.298Z,13.20
2019-04-30T11:58:40.738Z,13.30
2019-04-30T12:01:15.460Z,13.30
2019-04-30T12:03:45.630Z,13.30
2019-04-30T12:06:16.190Z,13.30
2019-04-30T12:09:04.102Z,13.30
2019-04-30T12:11:36.890Z,13.30
2019-04-30T12:14:07.172Z,13.30
2019-04-30T12:16:39.441Z,13.40
2019-04-30T12:19:09.794Z,13.40
2019-04-30T12:21:40.106Z,13.40
2019-04-30T12:24:10.342Z,13.40
2019-04-30T12:26:40.808Z,13.40
2019-04-30T12:29:11.212Z,13.40
2019-04-30T12:31:41.691Z,13.50
2019-04-30T12:34:12.090Z,13.60
2019-04-30T12:36:42.244Z,13.60
2019-04-30T12:39:12.528Z,13.60
2019-04-30T12:41:42.706Z,13.60
2019-04-30T12:44:12.917Z,13.60
2019-04-30T12:46:43.100Z,13.70
2019-04-30T12:49:13.829Z,13.70
2019-04-30T12:52:09.147Z,13.80
2019-04-30T12:55:01.315Z,13.80
2019-04-30T12:57:39.301Z,13.80
2019-04-30T13:00:11.556Z,13.90
2019-04-30T13:02:42.076Z,13.90
2019-04-30T13:05:13.756Z,13.90
2019-04-30T13:07:44.412Z,13.90
2019-04-30T13:10:15.884Z,13.90
2019-04-30T13:12:47.514Z,14.00
2019-04-30T13:15:18.598Z,14.00
2019-04-30T13:17:50.153Z,14.20
2019-04-30T13:20:23.943Z,14.30
2019-04-30T13:22:52.658Z,14.30
2019-04-30T13:25:32.241Z,14.20
2019-04-30T13:27:58.250Z,14.30
2019-04-30T13:30:30.268Z,14.40
2019-04-30T13:33:09.324Z,14.50
2019-04-30T13:35:39.160Z,14.50
2019-04-30T13:38:18.068Z,14.60
2019-04-30T13:41:08.851Z,14.60
2019-04-30T13:43:58.814Z,14.70
2019-04-30T13:46:29.634Z,14.80
2019-04-30T13:49:00.091Z,14.70
2019-04-30T13:51:30.721Z,14.80
2019-04-30T13:54:00.783Z,14.80
2019-04-30T13:56:31.031Z,14.80
2019-04-30T13:59:01.302Z,14.80
2019-04-30T14:01:31.486Z,14.80
2019-04-30T14:04:20.599Z,14.80
2019-04-30T14:07:13.080Z,14.90
2019-04-30T14:09:43.230Z,14.90
2019-04-30T14:12:13.766Z,15.00
2019-04-30T14:14:43.992Z,15.00
2019-04-30T14:17:14.195Z,15.00
2019-04-30T14:19:44.342Z,15.00
2019-04-30T14:22:14.532Z,15.00
2019-04-30T14:24:45.082Z,14.90
2019-04-30T14:27:15.592Z,14.90
2019-04-30T14:29:45.648Z,15.00
2019-04-30T14:32:16.178Z,15.00
2019-04-30T14:34:46.316Z,14.90
2019-04-30T14:37:16.890Z,14.90
2019-04-30T14:39:47.126Z,14.90
2019-04-30T14:42:20.060Z,14.90
2019-04-30T14:44:52.231Z,14.90
2019-04-30T14:47:34.672Z,14.80
2019-04-30T14:50:15.054Z,14.80
2019-04-30T14:52:56.521Z,14.80
2019-04-30T14:55:45.617Z,14.80
2019-04-30T14:58:24.539Z,14.80
2019-04-30T15:01:11.180Z,14.80
2019-04-30T15:03:41.644Z,14.80
2019-04-30T15:06:12.086Z,14.80
2019-04-30T15:08:42.588Z,14.80
2019-04-30T15:11:13.031Z,14.80
2019-04-30T15:13:43.161Z,14.80
2019-04-30T15:16:13.667Z,14.80
2019-04-30T15:18:43.828Z,14.80
2019-04-30T15:21:14.017Z,14.80
2019-04-30T15:24:00.905Z,14.70
2019-04-30T15:26:28.728Z,14.70
2019-04-30T15:29:00.094Z,14.80
2019-04-30T15:31:30.543Z,14.80
2019-04-30T15:34:11.113Z,14.80
2019-04-30T15:36:41.954Z,14.80
2019-04-30T15:39:31.069Z,14.80
2019-04-30T15:42:01.862Z,14.80
2019-04-30T15:44:40.236Z,14.80
2019-04-30T15:47:05.486Z,14.80
2019-04-30T15:49:36.325Z,14.80
2019-04-30T15:52:06.546Z,14.90
2019-04-30T15:54:36.727Z,14.90
2019-04-30T15:57:08.915Z,14.90
2019-04-30T15:59:42.953Z,14.90
2019-04-30T16:02:56.384Z,14.90
2019-04-30T16:05:36.459Z,14.90
2019-04-30T16:08:23.998Z,14.90
2019-04-30T16:11:07.394Z,14.80
2019-04-30T16:13:55.882Z,14.90
2019-04-30T16:16:28.861Z,14.80
2019-04-30T16:18:59.443Z,14.80
2019-04-30T16:21:29.617Z,14.80
2019-04-30T16:23:59.767Z,14.90
2019-04-30T16:26:29.981Z,14.80
2019-04-30T16:29:00.545Z,14.80
2019-04-30T16:31:31.895Z,14.90
2019-04-30T16:34:02.132Z,14.90
2019-04-30T16:36:32.939Z,14.80
2019-04-30T16:39:04.201Z,14.80
2019-04-30T16:41:36.263Z,14.80
2019-04-30T16:44:09.117Z,14.80
2019-04-30T16:46:39.569Z,14.80
2019-04-30T16:49:11.148Z,14.80
2019-04-30T16:51:42.849Z,14.80
2019-04-30T16:54:13.043Z,14.80
2019-04-30T16:56:43.499Z,14.80
2019-04-30T16:59:16.017Z,14.80
2019-04-30T17:01:57.156Z,14.80
2019-04-30T17:04:30.281Z,14.80
2019-04-30T17:07:19.376Z,14.80
2019-04-30T17:09:58.965Z,14.80
2019-04-30T17:12:35.147Z,14.80
2019-04-30T17:15:19.242Z,14.80
2019-04-30T17:17:49.836Z,14.80
2019-04-30T17:20:21.056Z,14.80
2019-04-30T17:22:51.247Z,14.80
2019-04-30T17:25:21.491Z,14.80
2019-04-30T17:27:51.630Z,14.80
2019-04-30T17:30:22.093Z,14.80
2019-04-30T17:32:52.251Z,14.80
2019-04-30T17:35:22.287Z,14.80
2019-04-30T17:37:52.461Z,14.80
2019-04-30T17:40:22.953Z,14.80
2019-04-30T17:42:53.122Z,14.80
2019-04-30T17:45:23.597Z,14.80
2019-04-30T17:47:53.819Z,14.80
2019-04-30T17:50:24.119Z,14.80
2019-04-30T17:52:54.264Z,14.80
2019-04-30T17:55:24.399Z,14.80
2019-04-30T17:57:55.034Z,14.80
2019-04-30T18:00:29.283Z,14.80
2019-04-30T18:02:59.939Z,14.80
2019-04-30T18:05:30.596Z,14.80
2019-04-30T18:08:00.736Z,14.80
2019-04-30T18:10:31.572Z,14.80
2019-04-30T18:13:02.006Z,14.70
2019-04-30T18:15:32.651Z,14.70
2019-04-30T18:21:36.004Z,14.80
2019-04-30T18:24:43.974Z,14.70
2019-04-30T18:27:20.995Z,14.70
2019-04-30T18:29:50.283Z,14.70
2019-04-30T18:32:22.249Z,14.70
2019-04-30T18:34:52.435Z,14.70
2019-04-30T18:37:22.675Z,14.70
2019-04-30T18:39:52.836Z,14.70
2019-04-30T18:42:23.177Z,14.70
2019-04-30T18:44:53.724Z,14.70
2019-04-30T18:47:24.351Z,14.70
2019-04-30T18:49:54.535Z,14.70
2019-04-30T18:52:24.801Z,14.70
2019-04-30T18:54:55.535Z,14.70
2019-04-30T18:57:25.748Z,14.70
2019-04-30T18:59:55.956Z,14.70
2019-04-30T19:02:26.446Z,14.70
2019-04-30T19:04:56.643Z,14.70
2019-04-30T19:07:37.969Z,14.70
2019-04-30T19:10:27.394Z,14.70
2019-04-30T19:13:18.929Z,14.70
2019-04-30T19:16:24.514Z,14.70
2019-04-30T19:19:09.421Z,14.70
2019-04-30T19:21:40.387Z,14.70
2019-04-30T19:24:10.804Z,14.60
2019-04-30T19:26:41.574Z,14.60
2019-04-30T19:29:12.104Z,14.60
2019-04-30T19:31:42.328Z,14.60
2019-04-30T19:34:12.490Z,14.60
2019-04-30T19:36:42.680Z,14.60
2019-04-30T19:39:13.498Z,14.60
2019-04-30T19:41:43.738Z,14.60
2019-04-30T19:44:13.982Z,14.60
2019-04-30T19:46:44.193Z,14.60
2019-04-30T19:49:14.764Z,14.50
2019-04-30T19:51:44.940Z,14.50
2019-04-30T19:54:15.092Z,14.50
2019-04-30T19:56:45.636Z,14.40
2019-04-30T19:59:15.826Z,14.40
2019-04-30T20:01:46.045Z,14.40
2019-04-30T20:04:16.224Z,14.40
2019-04-30T20:06:48.605Z,14.40
2019-04-30T20:09:19.395Z,14.50
2019-04-30T20:11:50.105Z,14.50
2019-04-30T20:14:20.286Z,14.40
2019-04-30T20:16:50.354Z,14.40
2019-04-30T20:19:20.536Z,14.40
2019-04-30T20:21:53.867Z,14.40
2019-04-30T20:24:22.618Z,14.40
2019-04-30T20:27:04.244Z,14.40
2019-04-30T20:29:24.687Z,14.30
2019-04-30T20:31:54.849Z,14.30
2019-04-30T20:34:25.434Z,14.30
2019-04-30T20:36:55.591Z,14.30
2019-04-30T20:39:43.386Z,14.30
2019-04-30T20:42:13.958Z,14.30
2019-04-30T20:44:44.121Z,14.20
2019-04-30T20:47:14.643Z,14.20
2019-04-30T20:49:44.846Z,14.20
2019-04-30T20:52:15.389Z,14.20
2019-04-30T20:54:45.563Z,14.20
2019-04-30T20:57:15.730Z,14.30
2019-04-30T20:59:45.784Z,14.20
2019-04-30T21:02:16.412Z,14.30
2019-04-30T21:04:46.482Z,14.20
2019-04-30T21:07:18.902Z,14.20
2019-04-30T21:09:49.184Z,14.20
2019-04-30T21:12:19.286Z,14.20
2019-04-30T21:14:49.351Z,14.20
2019-04-30T21:17:27.232Z,14.20
2019-04-30T21:19:58.854Z,14.20
2019-04-30T21:22:29.707Z,14.20
2019-04-30T21:25:00.646Z,14.20
2019-04-30T21:27:30.971Z,14.20
2019-04-30T21:30:01.056Z,14.20
2019-04-30T21:32:49.418Z,14.20
2019-04-30T21:35:38.571Z,14.20
2019-04-30T21:38:10.117Z,14.10
2019-04-30T21:40:40.276Z,14.10
2019-04-30T21:43:10.484Z,14.10
2019-04-30T21:45:40.948Z,14.10
2019-04-30T21:48:11.399Z,14.10
2019-04-30T21:50:41.466Z,14.10
2019-04-30T21:53:11.570Z,14.10
2019-04-30T21:55:41.663Z,14.10
2019-04-30T21:58:11.817Z,14.10
2019-04-30T22:00:59.347Z,14.10
2019-04-30T22:03:30.125Z,14.10
2019-04-30T22:06:00.191Z,14.10
2019-04-30T22:08:30.354Z,14.10
2019-04-30T22:11:00.852Z,14.00
2019-04-30T22:13:31.459Z,14.00
2019-04-30T22:16:01.991Z,14.00
2019-04-30T22:18:32.478Z,14.00
2019-04-30T22:21:02.973Z,14.00
2019-04-30T22:23:33.122Z,14.00
2019-04-30T22:26:03.302Z,14.00
2019-04-30T22:31:55.878Z,14.00
2019-04-30T22:34:26.073Z,13.90
2019-04-30T22:36:56.202Z,13.90
2019-04-30T22:39:45.298Z,13.90
2019-04-30T22:42:36.674Z,14.00
2019-04-30T22:45:21.598Z,14.00
2019-04-30T22:47:51.738Z,14.00
2019-04-30T22:50:22.384Z,14.00
2019-04-30T22:52:52.467Z,14.00
2019-04-30T22:55:22.658Z,14.00
2019-04-30T22:57:52.734Z,14.00
2019-04-30T23:00:33.862Z,14.00
2019-04-30T23:03:10.696Z,14.00
2019-04-30T23:05:41.280Z,14.00
2019-04-30T23:08:11.348Z,14.00
2019-04-30T23:10:41.509Z,14.00
2019-04-30T23:13:12.004Z,14.00
2019-04-30T23:15:42.158Z,14.00
2019-04-30T23:18:12.659Z,14.00
2019-04-30T23:20:42.846Z,14.00
2019-04-30T23:23:13.033Z,14.00
2019-04-30T23:25:43.226Z,14.00
2019-04-30T23:28:13.396Z,14.00
2019-04-30T23:30:43.720Z,14.00
2019-04-30T23:33:13.889Z,14.00
2019-04-30T23:35:44.784Z,14.00
2019-04-30T23:38:14.928Z,14.00
2019-04-30T23:40:50.702Z,14.00
2019-04-30T23:43:21.311Z,14.00
2019-04-30T23:45:51.367Z,14.00
2019-04-30T23:48:21.472Z,14.00
2019-04-30T23:50:51.636Z,13.90
2019-04-30T23:53:22.105Z,13.90
2019-04-30T23:55:52.194Z,13.90
2019-04-30T23:58:22.351Z,13.90
